createdAt,value
2023-05-19T00:01:43.768Z,11.25
2023-05-19T00:04:35.431Z,11.20
2023-05-19T00:07:26.433Z,11.22
2023-05-19T00:10:16.485Z,11.10
2023-05-19T00:13:05.526Z,10.97
2023-05-19T00:15:54.937Z,10.59
2023-05-19T00:18:43.523Z,11.11
2023-05-19T00:21:33.763Z,10.30
2023-05-19T00:24:22.301Z,11.03
2023-05-19T00:27:11.050Z,11.00
2023-05-19T00:29:59.573Z,10.90
2023-05-19T00:32:48.141Z,10.86
2023-05-19T00:35:36.651Z,10.82
2023-05-19T00:38:26.580Z,10.85
2023-05-19T00:41:15.152Z,10.76
2023-05-19T00:44:03.736Z,10.69
2023-05-19T00:46:52.350Z,10.58
2023-05-19T00:49:40.978Z,10.60
2023-05-19T00:52:29.469Z,10.57
2023-05-19T00:55:19.504Z,10.59
2023-05-19T00:58:08.503Z,10.65
2023-05-19T01:01:02.984Z,10.62
2023-05-19T01:03:51.701Z,10.63
2023-05-19T01:06:40.276Z,10.59
2023-05-19T01:09:28.861Z,10.56
2023-05-19T01:12:19.102Z,10.56
2023-05-19T01:15:09.885Z,10.60
2023-05-19T01:18:07.300Z,10.50
2023-05-19T01:21:03.735Z,10.18
2023-05-19T01:23:57.033Z,9.58
2023-05-19T01:27:03.729Z,10.43
2023-05-19T01:30:17.066Z,10.39
2023-05-19T01:33:08.599Z,10.32
2023-05-19T01:35:57.615Z,10.31
2023-05-19T01:38:47.446Z,10.25
2023-05-19T01:41:36.152Z,10.21
2023-05-19T01:44:27.853Z,10.18
2023-05-19T01:47:16.771Z,10.16
2023-05-19T01:50:07.796Z,10.14
2023-05-19T01:52:56.657Z,10.16
2023-05-19T01:55:48.013Z,9.97
2023-05-19T01:58:42.829Z,10.09
2023-05-19T02:01:35.430Z,10.09
2023-05-19T02:04:31.453Z,9.99
2023-05-19T02:07:27.548Z,9.93
2023-05-19T02:10:20.665Z,9.92
2023-05-19T02:13:12.359Z,9.83
2023-05-19T02:16:05.408Z,9.80
2023-05-19T02:18:54.681Z,9.79
2023-05-19T02:21:43.203Z,9.76
2023-05-19T02:24:33.100Z,9.70
2023-05-19T02:27:21.932Z,9.72
2023-05-19T02:30:11.521Z,9.69
2023-05-19T02:33:00.402Z,9.64
2023-05-19T02:35:48.978Z,9.70
2023-05-19T02:38:37.639Z,9.57
2023-05-19T02:41:27.528Z,9.58
2023-05-19T02:44:16.279Z,9.64
2023-05-19T02:47:05.055Z,9.61
2023-05-19T02:49:53.576Z,9.60
2023-05-19T02:52:42.144Z,9.54
2023-05-19T02:55:30.713Z,9.52
2023-05-19T02:58:21.168Z,9.53
2023-05-19T03:01:09.747Z,9.50
2023-05-19T03:03:58.312Z,9.44
2023-05-19T03:06:46.925Z,9.40
2023-05-19T03:09:35.739Z,9.34
2023-05-19T03:12:24.545Z,9.36
2023-05-19T03:15:15.038Z,9.44
2023-05-19T03:18:03.585Z,9.36
2023-05-19T03:20:53.888Z,9.26
2023-05-19T03:23:42.415Z,9.30
2023-05-19T03:26:30.909Z,9.30
2023-05-19T03:29:19.410Z,9.26
2023-05-19T03:32:09.548Z,9.27
2023-05-19T03:34:58.119Z,9.14
2023-05-19T03:37:46.731Z,9.20
2023-05-19T03:40:35.384Z,9.14
2023-05-19T03:43:23.968Z,9.13
2023-05-19T03:46:12.457Z,9.11
2023-05-19T03:49:02.386Z,9.17
2023-05-19T03:51:51.098Z,9.16
2023-05-19T03:54:39.960Z,9.15
2023-05-19T03:57:29.720Z,9.14
2023-05-19T04:00:18.827Z,9.11
2023-05-19T04:03:10.297Z,9.13
2023-05-19T04:06:00.291Z,9.11
2023-05-19T04:08:48.839Z,9.09
2023-05-19T04:11:37.324Z,9.10
2023-05-19T04:14:25.813Z,9.15
2023-05-19T04:17:14.351Z,9.17
2023-05-19T04:20:02.872Z,9.23
2023-05-19T04:22:52.730Z,9.24
2023-05-19T04:25:41.974Z,9.19
2023-05-19T04:28:30.846Z,9.19
2023-05-19T04:31:21.604Z,9.20
2023-05-19T04:34:10.319Z,9.22
2023-05-19T04:36:59.219Z,9.33
2023-05-19T04:39:49.090Z,9.36
2023-05-19T04:42:37.589Z,9.39
2023-05-19T04:45:26.817Z,9.42
2023-05-19T04:48:15.304Z,9.44
2023-05-19T04:51:03.860Z,9.49
2023-05-19T04:53:52.600Z,9.58
2023-05-19T04:56:43.641Z,9.64
2023-05-19T04:59:32.341Z,9.73
2023-05-19T05:02:21.154Z,9.78
2023-05-19T05:05:10.602Z,9.88
2023-05-19T05:07:59.573Z,9.91
2023-05-19T05:10:48.498Z,9.74
2023-05-19T05:13:39.276Z,9.96
2023-05-19T05:16:28.438Z,10.05
2023-05-19T05:19:17.559Z,9.99
2023-05-19T05:22:06.798Z,10.29
2023-05-19T05:24:55.808Z,10.41
2023-05-19T05:27:44.353Z,10.51
2023-05-19T05:30:34.699Z,10.61
2023-05-19T05:33:24.843Z,10.69
2023-05-19T05:36:13.752Z,10.80
2023-05-19T05:39:02.529Z,10.85
2023-05-19T05:41:51.098Z,10.87
2023-05-19T05:44:39.624Z,10.81
2023-05-19T05:47:30.116Z,10.87
2023-05-19T05:50:19.630Z,11.04
2023-05-19T05:53:08.854Z,11.07
2023-05-19T05:55:58.074Z,11.15
2023-05-19T05:58:46.673Z,11.25
2023-05-19T06:01:36.241Z,11.34
2023-05-19T06:04:26.671Z,11.52
2023-05-19T06:07:15.319Z,11.70
2023-05-19T06:10:04.029Z,11.74
2023-05-19T06:12:52.529Z,11.79
2023-05-19T06:15:41.190Z,11.75
2023-05-19T06:18:29.832Z,11.81
2023-05-19T06:21:19.698Z,12.15
2023-05-19T06:24:08.512Z,12.33
2023-05-19T06:26:56.978Z,12.58
2023-05-19T06:29:45.468Z,12.65
2023-05-19T06:32:34.093Z,12.77
2023-05-19T06:35:22.668Z,12.83
2023-05-19T06:38:12.574Z,13.01
2023-05-19T06:41:01.074Z,13.19
2023-05-19T06:43:49.678Z,13.07
2023-05-19T06:46:38.312Z,13.27
2023-05-19T06:49:29.386Z,13.26
2023-05-19T06:52:18.305Z,13.26
2023-05-19T06:55:09.183Z,13.59
2023-05-19T06:57:57.831Z,13.80
2023-05-19T07:00:46.426Z,13.92
2023-05-19T07:03:35.116Z,14.20
2023-05-19T07:06:23.722Z,14.27
2023-05-19T07:09:12.241Z,14.32
2023-05-19T07:12:02.487Z,14.54
2023-05-19T07:14:50.996Z,14.74
2023-05-19T07:17:39.664Z,14.85
2023-05-19T07:20:28.154Z,14.61
2023-05-19T07:23:17.497Z,15.04
2023-05-19T07:26:06.222Z,15.02
2023-05-19T07:28:56.757Z,15.21
2023-05-19T07:31:45.335Z,15.27
2023-05-19T07:34:33.877Z,15.29
2023-05-19T07:37:22.439Z,15.62
2023-05-19T07:40:11.252Z,15.85
2023-05-19T07:42:59.772Z,16.14
2023-05-19T07:45:49.642Z,16.46
2023-05-19T07:48:38.268Z,16.63
2023-05-19T07:51:26.858Z,16.79
2023-05-19T07:54:15.501Z,16.67
2023-05-19T07:57:04.178Z,16.41
2023-05-19T07:59:52.678Z,17.04
2023-05-19T08:02:42.721Z,17.26
2023-05-19T08:05:31.326Z,17.22
2023-05-19T08:08:20.270Z,17.18
2023-05-19T08:11:08.882Z,17.20
2023-05-19T08:13:57.450Z,17.18
2023-05-19T08:16:46.498Z,17.34
2023-05-19T08:19:36.381Z,17.42
2023-05-19T08:22:25.020Z,17.59
2023-05-19T08:25:13.803Z,17.64
2023-05-19T08:28:02.349Z,17.82
2023-05-19T08:30:51.592Z,17.82
2023-05-19T08:33:40.107Z,17.77
2023-05-19T08:36:30.706Z,17.95
2023-05-19T08:39:24.182Z,17.98
2023-05-19T08:42:12.713Z,18.04
2023-05-19T08:45:01.894Z,18.01
2023-05-19T08:47:52.402Z,17.67
2023-05-19T08:50:42.527Z,17.98
2023-05-19T08:53:37.821Z,17.83
2023-05-19T08:56:26.882Z,17.79
2023-05-19T08:59:15.503Z,17.98
2023-05-19T09:02:04.924Z,17.75
2023-05-19T09:04:53.917Z,17.94
2023-05-19T09:07:43.242Z,17.92
2023-05-19T09:10:33.246Z,18.33
2023-05-19T09:13:21.831Z,18.22
2023-05-19T09:16:10.432Z,18.25
2023-05-19T09:19:00.995Z,18.60
2023-05-19T09:21:59.424Z,18.49
2023-05-19T09:24:48.736Z,19.05
2023-05-19T09:27:38.988Z,18.99
2023-05-19T09:30:27.691Z,18.59
2023-05-19T09:33:18.606Z,18.31
2023-05-19T09:36:08.414Z,17.67
2023-05-19T09:38:57.094Z,18.15
2023-05-19T09:41:46.056Z,17.79
2023-05-19T09:44:36.530Z,17.64
2023-05-19T09:47:25.889Z,17.53
2023-05-19T09:50:14.887Z,17.71
2023-05-19T09:53:03.563Z,17.91
2023-05-19T09:55:56.407Z,17.80
2023-05-19T09:58:44.889Z,17.96
2023-05-19T10:01:36.315Z,17.87
2023-05-19T10:04:26.803Z,18.07
2023-05-19T10:07:15.893Z,18.36
2023-05-19T10:10:04.689Z,18.50
2023-05-19T10:12:53.318Z,18.36
2023-05-19T10:15:57.443Z,18.48
2023-05-19T10:18:48.569Z,18.53
2023-05-19T10:21:37.412Z,18.79
2023-05-19T10:24:26.337Z,18.96
2023-05-19T10:27:16.159Z,18.75
2023-05-19T10:30:12.096Z,18.58
2023-05-19T10:33:02.759Z,18.51
2023-05-19T10:36:09.184Z,18.69
2023-05-19T10:39:01.653Z,18.75
2023-05-19T10:42:02.359Z,18.83
2023-05-19T10:44:57.968Z,18.76
2023-05-19T10:47:46.886Z,18.63
2023-05-19T10:50:37.706Z,18.68
2023-05-19T10:53:32.293Z,18.87
2023-05-19T10:56:32.847Z,19.09
2023-05-19T10:59:37.191Z,19.05
2023-05-19T11:02:40.758Z,18.25
2023-05-19T11:05:31.083Z,18.37
2023-05-19T11:08:34.882Z,18.07
2023-05-19T11:11:23.697Z,18.11
2023-05-19T11:14:12.710Z,18.21
2023-05-19T11:17:01.536Z,18.39
2023-05-19T11:19:54.499Z,18.47
2023-05-19T11:22:43.218Z,18.50
2023-05-19T11:25:44.469Z,18.67
2023-05-19T11:28:33.226Z,18.58
2023-05-19T11:31:22.964Z,18.83
2023-05-19T11:34:11.514Z,18.88
2023-05-19T11:37:00.157Z,18.62
2023-05-19T11:39:49.000Z,18.73
2023-05-19T11:42:38.864Z,18.40
2023-05-19T11:45:27.793Z,18.33
2023-05-19T11:48:17.288Z,18.10
2023-05-19T11:51:07.241Z,18.27
2023-05-19T11:53:56.006Z,18.05
2023-05-19T11:56:44.521Z,17.91
2023-05-19T11:59:36.263Z,17.50
2023-05-19T12:02:27.498Z,17.76
2023-05-19T12:05:19.729Z,17.51
2023-05-19T12:08:08.795Z,17.82
2023-05-19T12:10:57.760Z,17.84
2023-05-19T12:13:46.315Z,17.85
2023-05-19T12:16:36.592Z,17.71
2023-05-19T12:19:25.835Z,17.65
2023-05-19T12:22:15.889Z,17.50
2023-05-19T12:25:05.830Z,17.37
2023-05-19T12:27:58.822Z,17.41
2023-05-19T12:30:49.310Z,17.23
2023-05-19T12:33:39.590Z,17.33
2023-05-19T12:36:28.800Z,17.18
2023-05-19T12:39:18.910Z,17.20
2023-05-19T12:42:09.619Z,17.38
2023-05-19T12:45:00.684Z,16.77
2023-05-19T12:47:50.265Z,17.49
2023-05-19T12:50:40.201Z,17.54
2023-05-19T12:53:28.748Z,17.58
2023-05-19T12:56:17.474Z,17.59
2023-05-19T12:59:06.068Z,17.64
2023-05-19T13:01:58.450Z,17.40
2023-05-19T13:04:47.032Z,17.56
2023-05-19T13:07:36.912Z,17.66
2023-05-19T13:10:27.032Z,17.61
2023-05-19T13:13:15.856Z,17.61
2023-05-19T13:16:04.487Z,17.48
2023-05-19T13:18:53.422Z,17.55
2023-05-19T13:21:42.214Z,17.36
2023-05-19T13:24:32.134Z,17.25
2023-05-19T13:27:20.636Z,17.15
2023-05-19T13:30:10.033Z,17.26
2023-05-19T13:32:58.671Z,17.38
2023-05-19T13:35:47.231Z,17.11
2023-05-19T13:38:35.946Z,17.05
2023-05-19T13:41:26.800Z,17.13
2023-05-19T13:44:15.459Z,17.12
2023-05-19T13:47:04.100Z,17.19
2023-05-19T13:49:52.948Z,17.35
2023-05-19T13:52:41.856Z,17.42
2023-05-19T13:55:30.396Z,17.40
2023-05-19T13:58:20.301Z,17.39
2023-05-19T14:01:09.427Z,17.15
2023-05-19T14:03:58.172Z,17.21
2023-05-19T14:06:46.929Z,17.19
2023-05-19T14:09:35.449Z,16.99
2023-05-19T14:12:30.956Z,17.09
2023-05-19T14:15:29.590Z,17.08
2023-05-19T14:18:18.136Z,17.20
2023-05-19T14:21:07.057Z,17.31
2023-05-19T14:23:55.665Z,17.43
2023-05-19T14:26:44.228Z,17.31
2023-05-19T14:29:33.264Z,17.41
2023-05-19T14:32:23.168Z,17.35
2023-05-19T14:35:12.069Z,17.18
2023-05-19T14:38:00.645Z,17.38
2023-05-19T14:40:49.376Z,17.36
2023-05-19T14:43:37.949Z,17.54
2023-05-19T14:46:26.596Z,17.77
2023-05-19T14:49:16.531Z,17.69
2023-05-19T14:52:05.424Z,17.36
2023-05-19T14:54:54.161Z,17.53
2023-05-19T14:57:43.019Z,17.58
2023-05-19T15:00:31.831Z,17.39
2023-05-19T15:03:20.455Z,17.36
2023-05-19T15:06:11.514Z,17.36
2023-05-19T15:09:00.131Z,17.34
2023-05-19T15:11:48.712Z,17.23
2023-05-19T15:14:37.189Z,17.33
2023-05-19T15:17:25.862Z,17.28
2023-05-19T15:20:14.518Z,17.18
2023-05-19T15:23:04.402Z,17.28
2023-05-19T15:25:53.049Z,17.02
2023-05-19T15:28:41.624Z,17.08
2023-05-19T15:31:30.195Z,17.23
2023-05-19T15:34:18.804Z,17.30
2023-05-19T15:37:07.373Z,17.18
2023-05-19T15:39:57.252Z,17.28
2023-05-19T15:42:45.785Z,17.28
2023-05-19T15:45:34.339Z,17.24
2023-05-19T15:48:22.875Z,17.28
2023-05-19T15:51:11.483Z,17.32
2023-05-19T15:54:00.054Z,17.40
2023-05-19T15:56:50.004Z,17.57
2023-05-19T15:59:38.636Z,17.63
2023-05-19T16:02:27.357Z,17.49
2023-05-19T16:05:16.726Z,17.45
2023-05-19T16:08:07.714Z,17.40
2023-05-19T16:10:57.288Z,17.16
2023-05-19T16:13:47.194Z,17.44
2023-05-19T16:16:36.316Z,17.47
2023-05-19T16:19:25.059Z,17.56
2023-05-19T16:22:13.708Z,17.56
2023-05-19T16:25:02.217Z,17.53
2023-05-19T16:27:50.713Z,17.62
2023-05-19T16:30:40.629Z,17.43
2023-05-19T16:33:30.003Z,17.55
2023-05-19T16:36:18.542Z,17.41
2023-05-19T16:39:07.077Z,17.43
2023-05-19T16:41:55.737Z,17.28
2023-05-19T16:44:44.293Z,17.32
2023-05-19T16:47:34.206Z,17.49
2023-05-19T16:50:22.814Z,17.47
2023-05-19T16:53:11.389Z,17.45
2023-05-19T16:56:00.378Z,17.43
2023-05-19T16:58:49.008Z,17.41
2023-05-19T17:01:37.576Z,17.35
2023-05-19T17:04:29.938Z,17.36
2023-05-19T17:07:19.278Z,17.38
2023-05-19T17:10:08.841Z,17.41
2023-05-19T17:12:57.467Z,17.44
2023-05-19T17:15:46.186Z,17.40
2023-05-19T17:18:35.277Z,17.20
2023-05-19T17:21:25.176Z,17.33
2023-05-19T17:24:13.759Z,17.42
2023-05-19T17:27:02.534Z,17.23
2023-05-19T17:29:51.126Z,17.45
2023-05-19T17:32:39.887Z,17.42
2023-05-19T17:35:28.751Z,17.42
2023-05-19T17:38:18.714Z,17.40
2023-05-19T17:41:10.067Z,17.02
2023-05-19T17:43:58.739Z,17.33
2023-05-19T17:46:47.349Z,17.36
2023-05-19T17:49:36.102Z,17.32
2023-05-19T17:52:25.775Z,17.34
2023-05-19T17:55:16.378Z,17.33
2023-05-19T17:58:05.724Z,17.22
2023-05-19T18:00:55.024Z,17.26
2023-05-19T18:03:49.138Z,17.18
2023-05-19T18:06:38.988Z,17.18
2023-05-19T18:09:29.006Z,17.18
2023-05-19T18:12:19.222Z,16.93
2023-05-19T18:15:08.483Z,17.22
2023-05-19T18:17:57.135Z,16.96
2023-05-19T18:20:45.809Z,17.15
2023-05-19T18:23:34.358Z,17.02
2023-05-19T18:26:22.984Z,16.99
2023-05-19T18:29:14.592Z,17.09
2023-05-19T18:32:03.269Z,16.75
2023-05-19T18:34:52.112Z,17.03
2023-05-19T18:37:40.716Z,16.90
2023-05-19T18:40:29.297Z,16.98
2023-05-19T18:43:17.838Z,16.92
2023-05-19T18:46:07.937Z,16.83
2023-05-19T18:48:56.585Z,16.72
2023-05-19T18:51:48.340Z,16.63
2023-05-19T18:54:37.599Z,16.55
2023-05-19T18:57:26.343Z,16.37
2023-05-19T19:00:15.626Z,16.44
2023-05-19T19:03:05.700Z,16.36
2023-05-19T19:05:57.697Z,16.30
2023-05-19T19:08:46.489Z,16.18
2023-05-19T19:11:35.046Z,16.10
2023-05-19T19:14:23.570Z,16.03
2023-05-19T19:17:12.129Z,15.99
2023-05-19T19:20:02.093Z,15.94
2023-05-19T19:22:51.255Z,15.92
2023-05-19T19:25:39.801Z,15.73
2023-05-19T19:28:28.460Z,15.67
2023-05-19T19:31:17.006Z,15.58
2023-05-19T19:34:09.115Z,15.53
2023-05-19T19:36:59.068Z,14.72
2023-05-19T19:39:47.678Z,15.43
2023-05-19T19:42:38.163Z,15.38
2023-05-19T19:45:26.760Z,15.35
2023-05-19T19:48:15.272Z,15.30
2023-05-19T19:51:03.987Z,15.25
2023-05-19T19:53:53.865Z,15.22
2023-05-19T19:56:42.407Z,15.16
2023-05-19T19:59:30.969Z,15.18
2023-05-19T20:02:19.767Z,15.11
2023-05-19T20:05:09.046Z,15.05
2023-05-19T20:07:57.667Z,15.09
2023-05-19T20:10:48.407Z,14.84
2023-05-19T20:13:37.035Z,15.04
2023-05-19T20:16:25.872Z,14.75
2023-05-19T20:19:14.591Z,14.99
2023-05-19T20:22:03.112Z,14.90
2023-05-19T20:24:51.685Z,14.90
2023-05-19T20:27:41.702Z,14.93
2023-05-19T20:30:30.420Z,15.01
2023-05-19T20:33:19.046Z,14.76
2023-05-19T20:36:08.108Z,14.72
2023-05-19T20:38:56.682Z,14.70
2023-05-19T20:41:45.220Z,14.69
2023-05-19T20:44:35.613Z,14.61
2023-05-19T20:47:24.174Z,14.47
2023-05-19T20:50:12.785Z,14.54
2023-05-19T20:53:01.731Z,14.37
2023-05-19T20:55:50.320Z,14.34
2023-05-19T20:58:39.094Z,14.32
2023-05-19T21:01:29.877Z,14.26
2023-05-19T21:04:18.628Z,14.22
2023-05-19T21:07:07.281Z,14.28
2023-05-19T21:09:56.628Z,14.27
2023-05-19T21:12:46.324Z,14.24
2023-05-19T21:15:35.021Z,14.24
2023-05-19T21:18:24.909Z,14.22
2023-05-19T21:21:13.434Z,14.24
2023-05-19T21:24:02.214Z,14.16
2023-05-19T21:26:51.442Z,14.14
2023-05-19T21:29:39.986Z,14.17
2023-05-19T21:32:29.686Z,14.13
2023-05-19T21:35:19.752Z,14.11
2023-05-19T21:38:22.135Z,14.05
2023-05-19T21:41:12.245Z,14.06
2023-05-19T21:44:00.782Z,14.06
2023-05-19T21:46:49.385Z,14.02
2023-05-19T21:49:38.290Z,14.06
2023-05-19T21:52:28.288Z,14.01
2023-05-19T21:55:17.000Z,14.02
2023-05-19T21:58:05.582Z,14.02
2023-05-19T22:00:56.055Z,13.84
2023-05-19T22:03:45.464Z,13.82
2023-05-19T22:06:34.429Z,13.74
2023-05-19T22:09:24.335Z,13.76
2023-05-19T22:12:12.945Z,13.84
2023-05-19T22:15:02.826Z,13.81
2023-05-19T22:17:51.514Z,13.84
2023-05-19T22:20:40.209Z,13.82
2023-05-19T22:23:28.980Z,13.82
2023-05-19T22:26:19.070Z,13.78
2023-05-19T22:29:07.893Z,13.78
2023-05-19T22:31:56.432Z,13.73
2023-05-19T22:34:45.222Z,13.80
2023-05-19T22:37:33.894Z,13.77
2023-05-19T22:40:22.416Z,13.75
2023-05-19T22:43:12.348Z,13.74
2023-05-19T22:46:01.026Z,13.73
2023-05-19T22:48:49.564Z,13.71
2023-05-19T22:51:39.290Z,13.73
2023-05-19T22:54:27.856Z,13.68
2023-05-19T22:57:22.766Z,13.72
2023-05-19T23:00:14.684Z,13.68
2023-05-19T23:03:03.320Z,13.68
2023-05-19T23:05:51.896Z,13.67
2023-05-19T23:08:40.575Z,13.70
2023-05-19T23:11:29.125Z,13.50
2023-05-19T23:14:18.508Z,13.37
2023-05-19T23:17:08.709Z,13.60
2023-05-19T23:19:57.479Z,13.57
2023-05-19T23:22:46.003Z,13.62
2023-05-19T23:25:34.844Z,13.55
2023-05-19T23:28:23.625Z,13.60
2023-05-19T23:31:12.176Z,13.60
2023-05-19T23:34:02.069Z,13.54
2023-05-19T23:36:52.347Z,13.51
2023-05-19T23:39:41.108Z,13.43
2023-05-19T23:42:29.686Z,13.43
2023-05-19T23:45:18.409Z,13.41
2023-05-19T23:48:07.355Z,13.39
2023-05-19T23:50:58.155Z,13.40
2023-05-19T23:53:46.891Z,13.38
2023-05-19T23:56:35.392Z,13.35
2023-05-19T23:59:24.020Z,13.33
